createdAt,value
2023-02-19T00:01:31.163Z,14.50
2023-02-19T00:04:00.128Z,17.27
2023-02-19T00:06:29.387Z,13.90
2023-02-19T00:08:56.468Z,14.68
2023-02-19T00:11:25.471Z,12.82
2023-02-19T00:13:54.060Z,11.93
2023-02-19T00:16:31.832Z,11.32
2023-02-19T00:18:59.919Z,10.30
2023-02-19T00:21:27.168Z,10.55
2023-02-19T00:23:55.872Z,9.18
2023-02-19T00:26:23.183Z,7.40
2023-02-19T00:28:51.460Z,6.85
2023-02-19T00:31:27.008Z,7.32
2023-02-19T00:33:56.858Z,6.30
2023-02-19T00:36:24.894Z,7.65
2023-02-19T00:38:51.970Z,6.03
2023-02-19T00:41:20.299Z,9.00
2023-02-19T00:43:53.061Z,8.05
2023-02-19T00:46:56.699Z,7.67
2023-02-19T00:49:24.118Z,8.95
2023-02-19T00:51:52.405Z,8.70
2023-02-19T00:54:19.607Z,6.88
2023-02-19T00:56:46.797Z,8.95
2023-02-19T00:59:13.525Z,8.30
2023-02-19T01:01:40.348Z,9.38
2023-02-19T01:04:07.505Z,11.63
2023-02-19T01:06:35.218Z,8.63
2023-02-19T01:09:02.602Z,8.63
2023-02-19T01:11:29.535Z,8.98
2023-02-19T01:14:01.409Z,9.98
2023-02-19T01:16:28.623Z,9.60
2023-02-19T01:18:57.198Z,11.30
2023-02-19T01:21:25.953Z,10.95
2023-02-19T01:23:54.301Z,10.40
2023-02-19T01:26:26.632Z,11.40
2023-02-19T01:28:53.580Z,11.25
2023-02-19T01:31:22.631Z,10.38
2023-02-19T01:33:52.330Z,10.63
2023-02-19T01:36:19.174Z,10.40
2023-02-19T01:38:46.586Z,9.38
2023-02-19T01:41:21.073Z,10.82
2023-02-19T01:44:28.696Z,10.43
2023-02-19T01:46:57.650Z,11.45
2023-02-19T01:49:28.948Z,9.90
2023-02-19T01:52:22.877Z,10.63
2023-02-19T01:54:50.449Z,9.45
2023-02-19T01:57:21.995Z,9.55
2023-02-19T01:59:54.969Z,11.43
2023-02-19T02:02:23.708Z,10.65
2023-02-19T02:04:50.965Z,10.47
2023-02-19T02:07:37.063Z,13.13
2023-02-19T02:10:22.917Z,11.40
2023-02-19T02:12:56.092Z,9.50
2023-02-19T02:15:28.187Z,9.17
2023-02-19T02:18:16.588Z,9.63
2023-02-19T02:21:03.524Z,10.85
2023-02-19T02:23:58.052Z,7.65
2023-02-19T02:26:48.858Z,8.35
2023-02-19T02:29:37.337Z,8.20
2023-02-19T02:32:14.301Z,7.68
2023-02-19T02:35:01.152Z,7.28
2023-02-19T02:37:32.781Z,7.53
2023-02-19T02:40:00.161Z,8.48
2023-02-19T02:42:29.550Z,10.25
2023-02-19T02:45:20.076Z,7.53
2023-02-19T02:47:49.812Z,7.25
2023-02-19T02:50:26.028Z,8.07
2023-02-19T02:53:17.680Z,4.57
2023-02-19T02:55:48.455Z,5.47
2023-02-19T02:58:17.020Z,8.27
2023-02-19T03:01:06.617Z,4.93
2023-02-19T03:03:36.962Z,7.07
2023-02-19T03:06:06.620Z,8.48
2023-02-19T03:08:42.462Z,9.98
2023-02-19T03:11:31.807Z,6.20
2023-02-19T03:14:29.852Z,8.75
2023-02-19T03:17:21.060Z,3.83
2023-02-19T03:19:52.230Z,4.37
2023-02-19T03:22:28.313Z,8.02
2023-02-19T03:25:21.206Z,6.97
2023-02-19T03:27:49.398Z,9.52
2023-02-19T03:30:21.884Z,9.77
2023-02-19T03:33:08.082Z,4.57
2023-02-19T03:35:41.838Z,7.13
2023-02-19T03:38:18.646Z,4.07
2023-02-19T03:41:10.531Z,4.17
2023-02-19T03:43:49.550Z,9.17
2023-02-19T03:46:25.567Z,6.63
2023-02-19T03:49:15.881Z,4.27
2023-02-19T03:51:50.142Z,3.40
2023-02-19T03:54:32.738Z,4.10
2023-02-19T03:57:06.047Z,3.77
2023-02-19T04:00:08.214Z,3.13
2023-02-19T04:02:44.473Z,5.80
2023-02-19T04:05:18.833Z,2.37
2023-02-19T04:07:48.955Z,3.65
2023-02-19T04:10:17.583Z,3.97
2023-02-19T04:12:49.664Z,5.70
2023-02-19T04:15:21.866Z,4.13
2023-02-19T04:17:55.666Z,4.00
2023-02-19T04:20:26.150Z,3.83
2023-02-19T04:22:53.054Z,3.73
2023-02-19T04:25:20.918Z,4.00
2023-02-19T04:27:47.648Z,5.05
2023-02-19T04:30:14.950Z,3.00
2023-02-19T04:32:41.712Z,5.03
2023-02-19T04:35:08.636Z,2.78
2023-02-19T04:37:35.321Z,5.60
2023-02-19T04:40:02.111Z,5.00
2023-02-19T04:42:28.731Z,4.90
2023-02-19T04:44:55.282Z,5.22
2023-02-19T04:47:21.890Z,4.77
2023-02-19T04:49:48.605Z,5.17
2023-02-19T04:52:15.329Z,7.17
2023-02-19T04:54:42.070Z,4.47
2023-02-19T04:57:08.637Z,8.32
2023-02-19T04:59:35.300Z,4.85
2023-02-19T05:02:01.984Z,6.20
2023-02-19T05:04:28.580Z,6.03
2023-02-19T05:06:55.164Z,3.72
2023-02-19T05:09:21.742Z,6.78
2023-02-19T05:11:48.364Z,4.20
2023-02-19T05:14:14.974Z,5.32
2023-02-19T05:16:41.562Z,5.57
2023-02-19T05:19:11.362Z,6.40
2023-02-19T05:21:39.553Z,4.17
2023-02-19T05:24:06.665Z,7.17
2023-02-19T05:26:33.362Z,4.35
2023-02-19T05:29:00.485Z,6.40
2023-02-19T05:31:27.331Z,7.33
2023-02-19T05:33:56.316Z,4.28
2023-02-19T05:36:24.036Z,4.75
2023-02-19T05:38:56.125Z,7.70
2023-02-19T05:41:25.025Z,6.10
2023-02-19T05:43:52.340Z,4.73
2023-02-19T05:46:22.034Z,5.83
2023-02-19T05:48:49.758Z,3.47
2023-02-19T05:51:21.183Z,5.07
2023-02-19T05:53:48.366Z,6.80
2023-02-19T05:56:32.648Z,7.70
2023-02-19T05:59:00.837Z,9.07
2023-02-19T06:01:28.883Z,6.70
2023-02-19T06:03:57.723Z,4.83
2023-02-19T06:06:25.679Z,5.63
2023-02-19T06:08:52.910Z,6.10
2023-02-19T06:11:19.982Z,3.87
2023-02-19T06:13:46.792Z,7.93
2023-02-19T06:16:13.574Z,6.73
2023-02-19T06:18:41.182Z,6.13
2023-02-19T06:21:09.792Z,7.80
2023-02-19T06:23:37.261Z,9.73
2023-02-19T06:26:09.396Z,6.17
2023-02-19T06:28:36.440Z,10.13
2023-02-19T06:31:04.054Z,10.03
2023-02-19T06:33:30.953Z,6.50
2023-02-19T06:36:02.561Z,8.70
2023-02-19T06:38:30.107Z,9.73
2023-02-19T06:41:04.476Z,11.83
2023-02-19T06:43:32.448Z,10.07
2023-02-19T06:46:00.488Z,8.10
2023-02-19T06:48:27.902Z,10.57
2023-02-19T06:50:54.615Z,9.17
2023-02-19T06:53:24.209Z,10.73
2023-02-19T06:56:06.670Z,9.03
2023-02-19T06:58:34.353Z,8.27
2023-02-19T07:01:01.522Z,12.70
2023-02-19T07:03:28.211Z,9.63
2023-02-19T07:05:54.956Z,9.53
2023-02-19T07:08:21.577Z,9.43
2023-02-19T07:10:58.961Z,13.57
2023-02-19T07:13:26.884Z,7.80
2023-02-19T07:16:03.197Z,11.80
2023-02-19T07:18:30.629Z,7.33
2023-02-19T07:21:04.843Z,11.30
2023-02-19T07:23:31.716Z,9.20
2023-02-19T07:25:58.521Z,9.10
2023-02-19T07:28:25.538Z,8.73
2023-02-19T07:30:52.410Z,9.30
2023-02-19T07:33:19.290Z,7.90
2023-02-19T07:35:47.802Z,8.57
2023-02-19T07:38:22.145Z,8.97
2023-02-19T07:40:57.219Z,16.73
2023-02-19T07:43:25.870Z,13.13
2023-02-19T07:45:52.999Z,10.73
2023-02-19T07:48:19.815Z,12.90
2023-02-19T07:50:54.150Z,10.03
2023-02-19T07:53:21.652Z,10.50
2023-02-19T07:55:48.534Z,9.93
2023-02-19T07:58:15.963Z,17.90
2023-02-19T08:00:42.996Z,11.50
2023-02-19T08:03:09.649Z,14.10
2023-02-19T08:05:41.702Z,17.30
2023-02-19T08:08:10.152Z,13.23
2023-02-19T08:10:55.323Z,15.07
2023-02-19T08:13:22.830Z,18.50
2023-02-19T08:16:18.423Z,17.50
2023-02-19T08:18:49.041Z,18.13
2023-02-19T08:21:18.180Z,16.90
2023-02-19T08:23:46.468Z,18.60
2023-02-19T08:26:13.884Z,18.83
2023-02-19T08:28:41.014Z,19.67
2023-02-19T08:31:10.188Z,20.13
2023-02-19T08:33:37.727Z,15.47
2023-02-19T08:36:06.374Z,17.53
2023-02-19T08:38:35.804Z,21.30
2023-02-19T08:41:11.612Z,16.30
2023-02-19T08:43:39.346Z,15.20
2023-02-19T08:46:07.197Z,13.17
2023-02-19T08:48:34.084Z,12.70
2023-02-19T08:51:04.108Z,14.90
2023-02-19T08:53:35.502Z,8.70
2023-02-19T08:56:10.301Z,10.93
2023-02-19T08:58:38.503Z,11.70
2023-02-19T09:01:16.452Z,8.45
2023-02-19T09:03:43.239Z,9.47
2023-02-19T09:06:18.669Z,6.90
2023-02-19T09:08:45.365Z,5.68
2023-02-19T09:11:18.041Z,4.85
2023-02-19T09:13:45.109Z,2.50
2023-02-19T09:16:11.995Z,2.90
2023-02-19T09:18:38.871Z,2.63
2023-02-19T09:21:06.136Z,3.17
2023-02-19T09:23:36.640Z,2.70
2023-02-19T09:26:08.625Z,2.33
2023-02-19T09:28:35.814Z,1.00
2023-02-19T09:31:06.720Z,2.15
2023-02-19T09:33:33.881Z,2.03
2023-02-19T09:36:01.087Z,1.80
2023-02-19T09:38:29.314Z,1.45
2023-02-19T09:40:59.170Z,2.22
2023-02-19T09:43:28.888Z,2.63
2023-02-19T09:46:03.892Z,1.90
2023-02-19T09:48:31.097Z,1.80
2023-02-19T09:50:59.206Z,1.80
2023-02-19T09:53:33.806Z,1.00
2023-02-19T09:56:01.366Z,2.58
2023-02-19T09:58:33.261Z,2.40
2023-02-19T10:03:48.413Z,1.65
2023-02-19T10:06:26.372Z,2.58
2023-02-19T10:08:59.038Z,2.10
2023-02-19T10:11:26.138Z,5.05
2023-02-19T10:16:25.902Z,2.03
2023-02-19T10:18:53.215Z,2.42
2023-02-19T10:21:25.160Z,3.72
2023-02-19T10:23:58.748Z,2.90
2023-02-19T10:26:25.611Z,3.10
2023-02-19T10:28:54.316Z,2.75
2023-02-19T10:31:24.597Z,1.83
2023-02-19T10:33:52.392Z,1.88
2023-02-19T10:36:36.187Z,3.08
2023-02-19T10:39:22.094Z,3.63
2023-02-19T10:41:54.390Z,2.25
2023-02-19T10:44:24.654Z,3.10
2023-02-19T10:46:55.264Z,5.10
2023-02-19T10:49:30.408Z,2.70
2023-02-19T10:52:03.132Z,2.38
2023-02-19T10:54:33.087Z,2.83
2023-02-19T10:57:30.287Z,2.75
2023-02-19T10:59:58.644Z,2.90
2023-02-19T11:02:26.644Z,3.85
2023-02-19T11:05:18.108Z,1.77
2023-02-19T11:07:48.045Z,2.50
2023-02-19T11:10:29.789Z,6.82
2023-02-19T11:13:03.589Z,5.28
2023-02-19T11:15:32.835Z,5.53
2023-02-19T11:17:59.940Z,5.00
2023-02-19T11:20:28.346Z,2.10
2023-02-19T11:23:00.883Z,6.07
2023-02-19T11:25:28.264Z,3.10
2023-02-19T11:28:08.541Z,2.17
2023-02-19T11:30:40.352Z,2.47
2023-02-19T11:33:16.315Z,3.95
2023-02-19T11:35:48.175Z,3.45
2023-02-19T11:38:21.597Z,1.38
2023-02-19T11:41:10.596Z,4.93
2023-02-19T11:43:48.850Z,4.00
2023-02-19T11:46:40.365Z,2.45
2023-02-19T11:49:29.044Z,3.38
2023-02-19T11:52:10.985Z,1.45
2023-02-19T11:54:50.972Z,2.30
2023-02-19T11:57:32.732Z,2.80
2023-02-19T12:00:18.364Z,2.22
2023-02-19T12:03:05.252Z,2.35
2023-02-19T12:06:06.228Z,2.95
2023-02-19T12:09:00.758Z,4.05
2023-02-19T12:11:49.253Z,1.70
2023-02-19T12:14:27.996Z,2.72
2023-02-19T12:17:29.961Z,1.63
2023-02-19T12:20:06.873Z,3.33
2023-02-19T12:22:44.719Z,2.95
2023-02-19T12:25:42.424Z,2.15
2023-02-19T12:28:37.058Z,4.10
2023-02-19T12:31:19.288Z,3.25
2023-02-19T12:33:56.758Z,1.55
2023-02-19T12:36:41.486Z,2.28
2023-02-19T12:39:44.529Z,2.40
2023-02-19T12:42:39.229Z,1.85
2023-02-19T12:45:21.401Z,2.15
2023-02-19T12:48:18.625Z,2.30
2023-02-19T12:50:50.941Z,4.22
2023-02-19T12:53:41.940Z,2.70
2023-02-19T12:56:15.495Z,2.45
2023-02-19T12:58:58.674Z,4.05
2023-02-19T13:01:50.719Z,1.73
2023-02-19T13:04:32.478Z,2.05
2023-02-19T13:07:30.883Z,2.63
2023-02-19T13:10:30.815Z,2.03
2023-02-19T13:13:00.258Z,2.75
2023-02-19T13:15:45.231Z,1.45
2023-02-19T13:18:17.718Z,3.40
2023-02-19T13:20:48.778Z,2.35
2023-02-19T13:23:41.008Z,3.92
2023-02-19T13:26:40.033Z,1.25
2023-02-19T13:29:20.137Z,3.53
2023-02-19T13:32:12.106Z,4.68
2023-02-19T13:34:51.555Z,2.33
2023-02-19T13:37:18.886Z,3.55
2023-02-19T13:39:51.144Z,11.55
2023-02-19T13:42:31.285Z,2.10
2023-02-19T13:44:58.925Z,2.20
2023-02-19T13:47:59.599Z,1.58
2023-02-19T13:50:33.096Z,3.67
2023-02-19T13:53:02.827Z,2.17
2023-02-19T13:55:52.021Z,3.17
2023-02-19T13:58:54.281Z,5.03
2023-02-19T14:01:52.983Z,4.78
2023-02-19T14:04:43.140Z,4.80
2023-02-19T14:07:09.675Z,2.17
2023-02-19T14:09:47.757Z,3.13
2023-02-19T14:12:16.102Z,2.47
2023-02-19T14:14:56.630Z,2.75
2023-02-19T14:17:35.203Z,2.30
2023-02-19T14:20:17.930Z,1.70
2023-02-19T14:22:58.242Z,2.10
2023-02-19T14:25:50.689Z,1.27
2023-02-19T14:28:32.954Z,3.47
2023-02-19T14:31:25.076Z,2.80
2023-02-19T14:34:22.768Z,4.40
2023-02-19T14:36:52.724Z,2.05
2023-02-19T14:39:37.394Z,3.42
2023-02-19T14:42:10.138Z,5.15
2023-02-19T14:44:56.790Z,2.40
2023-02-19T14:47:26.029Z,3.45
2023-02-19T14:50:01.242Z,2.80
2023-02-19T14:52:36.774Z,3.80
2023-02-19T14:55:09.113Z,2.17
2023-02-19T14:57:41.821Z,1.83
2023-02-19T15:00:30.338Z,2.67
2023-02-19T15:02:59.520Z,2.92
2023-02-19T15:05:30.802Z,4.80
2023-02-19T15:08:14.391Z,2.88
2023-02-19T15:10:43.357Z,4.10
2023-02-19T15:13:17.379Z,5.07
2023-02-19T15:15:46.194Z,2.83
2023-02-19T15:18:27.424Z,2.55
2023-02-19T15:21:01.322Z,8.43
2023-02-19T15:23:30.690Z,10.27
2023-02-19T15:25:58.319Z,20.38
2023-02-19T15:28:24.996Z,6.10
2023-02-19T15:30:52.236Z,7.10
2023-02-19T15:33:20.364Z,10.75
2023-02-19T15:35:53.531Z,12.00
2023-02-19T15:38:20.275Z,8.15
2023-02-19T15:40:48.353Z,10.45
2023-02-19T15:43:25.121Z,14.35
2023-02-19T15:45:57.056Z,12.75
2023-02-19T15:48:30.187Z,15.93
2023-02-19T15:51:08.227Z,17.40
2023-02-19T15:53:42.433Z,26.15
2023-02-19T15:56:27.893Z,20.15
2023-02-19T15:59:03.033Z,36.58
2023-02-19T16:01:34.226Z,14.98
2023-02-19T16:04:01.631Z,25.55
2023-02-19T16:06:28.908Z,12.73
2023-02-19T16:09:01.921Z,8.82
2023-02-19T16:11:49.394Z,12.98
2023-02-19T16:14:31.135Z,13.32
2023-02-19T16:17:10.004Z,18.40
2023-02-19T16:19:54.496Z,15.88
2023-02-19T16:22:30.245Z,10.00
2023-02-19T16:25:06.015Z,6.95
2023-02-19T16:27:36.407Z,8.25
2023-02-19T16:30:26.701Z,4.28
2023-02-19T16:33:28.849Z,4.55
2023-02-19T16:35:55.479Z,7.55
2023-02-19T16:38:22.048Z,4.47
2023-02-19T16:40:48.611Z,8.55
2023-02-19T16:43:15.516Z,4.68
2023-02-19T16:45:45.727Z,7.85
2023-02-19T16:48:13.156Z,4.88
2023-02-19T16:50:41.400Z,5.68
2023-02-19T16:53:15.476Z,7.78
2023-02-19T16:55:42.040Z,5.72
2023-02-19T16:58:08.847Z,8.18
2023-02-19T17:00:35.453Z,6.70
2023-02-19T17:03:09.024Z,6.93
2023-02-19T17:05:37.039Z,13.27
2023-02-19T17:08:20.741Z,6.38
2023-02-19T17:10:47.354Z,5.60
2023-02-19T17:13:14.233Z,4.95
2023-02-19T17:15:41.252Z,4.75
2023-02-19T17:18:11.144Z,4.30
2023-02-19T17:20:38.749Z,4.90
2023-02-19T17:23:05.508Z,4.85
2023-02-19T17:25:32.378Z,3.08
2023-02-19T17:27:59.166Z,4.28
2023-02-19T17:30:30.084Z,4.13
2023-02-19T17:32:56.870Z,4.05
2023-02-19T17:35:23.766Z,4.78
2023-02-19T17:37:52.991Z,3.72
2023-02-19T17:40:32.869Z,4.15
2023-02-19T17:43:01.824Z,5.57
2023-02-19T17:45:28.720Z,5.80
2023-02-19T17:47:55.491Z,5.65
2023-02-19T17:50:26.081Z,5.47
2023-02-19T17:52:52.903Z,6.10
2023-02-19T17:55:19.633Z,18.23
2023-02-19T17:57:47.807Z,50.15
2023-02-19T18:00:20.736Z,68.68
2023-02-19T18:02:47.529Z,11.35
2023-02-19T18:05:14.297Z,7.07
2023-02-19T18:07:41.436Z,12.15
2023-02-19T18:10:08.524Z,5.15
2023-02-19T18:12:35.220Z,3.13
2023-02-19T18:15:01.859Z,4.22
2023-02-19T18:17:28.567Z,5.72
2023-02-19T18:19:55.250Z,4.88
2023-02-19T18:22:21.985Z,7.20
2023-02-19T18:24:51.026Z,6.35
2023-02-19T18:27:20.212Z,8.50
2023-02-19T18:29:51.965Z,6.28
2023-02-19T18:32:19.828Z,9.43
2023-02-19T18:34:54.442Z,5.93
2023-02-19T18:37:21.513Z,6.00
2023-02-19T18:39:48.194Z,5.15
2023-02-19T18:42:15.604Z,3.88
2023-02-19T18:44:43.806Z,5.88
2023-02-19T18:47:11.545Z,3.53
2023-02-19T18:49:38.432Z,5.80
2023-02-19T18:52:05.421Z,3.65
2023-02-19T18:54:32.561Z,6.03
2023-02-19T18:57:00.621Z,7.85
2023-02-19T18:59:27.149Z,3.95
2023-02-19T19:01:53.964Z,7.20
2023-02-19T19:04:20.718Z,6.07
2023-02-19T19:06:47.572Z,6.57
2023-02-19T19:09:14.516Z,5.20
2023-02-19T19:11:41.466Z,4.20
2023-02-19T19:14:08.622Z,3.92
2023-02-19T19:16:35.419Z,4.28
2023-02-19T19:19:02.759Z,5.55
2023-02-19T19:21:30.618Z,3.42
2023-02-19T19:23:57.181Z,7.15
2023-02-19T19:26:23.973Z,4.72
2023-02-19T19:28:50.743Z,4.13
2023-02-19T19:31:18.670Z,6.25
2023-02-19T19:33:47.133Z,6.37
2023-02-19T19:36:15.279Z,6.03
2023-02-19T19:38:41.849Z,5.68
2023-02-19T19:41:08.640Z,6.70
2023-02-19T19:43:35.229Z,9.02
2023-02-19T19:46:03.982Z,6.63
2023-02-19T19:48:30.673Z,7.32
2023-02-19T19:50:57.262Z,7.72
2023-02-19T19:53:24.320Z,6.40
2023-02-19T19:55:51.119Z,4.90
2023-02-19T19:58:20.838Z,5.72
2023-02-19T20:00:47.447Z,5.03
2023-02-19T20:03:14.067Z,5.35
2023-02-19T20:05:40.913Z,6.97
2023-02-19T20:08:07.699Z,4.82
2023-02-19T20:10:34.345Z,5.35
2023-02-19T20:13:01.774Z,3.97
2023-02-19T20:15:28.363Z,5.18
2023-02-19T20:17:55.083Z,7.35
2023-02-19T20:20:25.565Z,4.45
2023-02-19T20:22:52.591Z,5.53
2023-02-19T20:25:23.224Z,4.68
2023-02-19T20:27:51.083Z,4.10
2023-02-19T20:30:20.192Z,4.55
2023-02-19T20:32:46.854Z,5.05
2023-02-19T20:35:14.199Z,7.00
2023-02-19T20:37:41.193Z,3.97
2023-02-19T20:40:08.534Z,6.85
2023-02-19T20:42:35.540Z,6.25
2023-02-19T20:45:02.105Z,5.65
2023-02-19T20:47:28.929Z,5.45
2023-02-19T20:49:55.542Z,6.05
2023-02-19T20:52:24.874Z,6.40
2023-02-19T20:54:56.375Z,4.90
2023-02-19T20:57:23.988Z,4.00
2023-02-19T20:59:50.863Z,3.67
2023-02-19T21:02:29.025Z,3.15
2023-02-19T21:04:56.790Z,5.60
2023-02-19T21:07:25.111Z,4.72
2023-02-19T21:09:52.129Z,7.75
2023-02-19T21:15:04.497Z,4.57
2023-02-19T21:17:31.658Z,5.32
2023-02-19T21:19:58.376Z,6.05
2023-02-19T21:22:25.818Z,5.55
2023-02-19T21:24:53.982Z,7.83
2023-02-19T21:27:24.465Z,6.45
2023-02-19T21:29:51.174Z,4.53
2023-02-19T21:32:17.943Z,7.33
2023-02-19T21:34:44.741Z,5.57
2023-02-19T21:37:11.511Z,6.28
2023-02-19T21:39:38.894Z,6.73
2023-02-19T21:42:05.663Z,7.33
2023-02-19T21:44:32.402Z,4.37
2023-02-19T21:46:59.097Z,4.63
2023-02-19T21:49:25.802Z,9.88
2023-02-19T21:51:52.581Z,4.30
2023-02-19T21:54:24.613Z,4.30
2023-02-19T21:56:52.817Z,5.32
2023-02-19T21:59:21.220Z,4.83
2023-02-19T22:01:48.422Z,4.43
2023-02-19T22:04:17.611Z,4.85
2023-02-19T22:06:45.057Z,7.18
2023-02-19T22:09:14.427Z,4.80
2023-02-19T22:11:44.147Z,5.57
2023-02-19T22:14:10.908Z,6.27
2023-02-19T22:16:37.870Z,5.05
2023-02-19T22:19:04.799Z,5.85
2023-02-19T22:21:35.006Z,5.75
2023-02-19T22:24:02.944Z,2.88
2023-02-19T22:26:35.148Z,3.03
2023-02-19T22:29:07.487Z,3.70
2023-02-19T22:31:35.716Z,3.00
2023-02-19T22:34:03.360Z,3.70
2023-02-19T22:36:31.906Z,4.80
2023-02-19T22:38:59.689Z,3.17
2023-02-19T22:41:26.999Z,5.05
2023-02-19T22:43:57.343Z,6.07
2023-02-19T22:46:26.341Z,4.30
2023-02-19T22:48:53.009Z,3.35
2023-02-19T22:51:21.719Z,4.57
2023-02-19T22:53:50.903Z,8.32
2023-02-19T22:56:19.236Z,3.88
2023-02-19T22:58:46.223Z,2.97
2023-02-19T23:01:14.561Z,2.40
2023-02-19T23:03:49.416Z,4.57
2023-02-19T23:06:17.526Z,4.72
2023-02-19T23:08:44.401Z,3.95
2023-02-19T23:11:13.157Z,2.87
2023-02-19T23:13:43.035Z,6.07
2023-02-19T23:16:10.014Z,4.80
2023-02-19T23:18:36.945Z,4.93
2023-02-19T23:21:03.672Z,5.43
2023-02-19T23:23:30.366Z,4.05
2023-02-19T23:25:57.002Z,5.85
2023-02-19T23:28:23.780Z,5.75
2023-02-19T23:30:50.619Z,4.43
2023-02-19T23:33:17.565Z,3.38
2023-02-19T23:35:44.280Z,4.57
2023-02-19T23:38:11.001Z,4.30
2023-02-19T23:40:37.648Z,3.50
2023-02-19T23:43:04.370Z,3.65
2023-02-19T23:45:31.018Z,2.85
2023-02-19T23:47:57.847Z,4.05
2023-02-19T23:50:24.549Z,4.03
2023-02-19T23:52:51.954Z,3.92
2023-02-19T23:55:18.689Z,7.25
2023-02-19T23:57:45.393Z,3.55
